Time;durP1;ratioP1;P1;durP2;ratioP2;P2;SDS_P1;SDS_P2;PMS_P1;PMS_P2;Temp;Humidity;BMP_temperature;BMP_pressure;BME280_temperature;BME280_humidity;BME280_pressure;Samples;Min_cycle;Max_cycle;Signal;HPM_P1;HPM_P2
2023/10/24 00:01:27;;;;;;;5.07;2.17;;;10.30;99.90;;;;;;5079976;28;20115;-74
2023/10/24 00:03:53;;;;;;;6.65;2.17;;;10.30;99.90;;;;;;5046329;28;20040;-74
2023/10/24 00:06:19;;;;;;;5.07;2.85;;;10.40;99.90;;;;;;5063019;28;20413;-74
2023/10/24 00:08:44;;;;;;;6.25;2.13;;;10.30;99.90;;;;;;5061727;28;20040;-74
2023/10/24 00:11:10;;;;;;;6.82;2.15;;;10.30;99.90;;;;;;5062228;28;20418;-74
2023/10/24 00:13:36;;;;;;;4.28;1.92;;;10.40;99.90;;;;;;5059272;28;20032;-74
2023/10/24 00:16:01;;;;;;;7.47;2.50;;;10.30;99.90;;;;;;5062067;28;20036;-74
2023/10/24 00:18:27;;;;;;;5.93;2.45;;;10.40;99.90;;;;;;5045192;28;20098;-75
2023/10/24 00:20:54;;;;;;;5.30;2.08;;;10.40;99.90;;;;;;5061687;28;20123;-74
2023/10/24 00:23:20;;;;;;;6.57;2.72;;;10.40;99.90;;;;;;5094644;28;20041;-75
2023/10/24 00:25:46;;;;;;;5.57;2.03;;;10.40;99.90;;;;;;5062715;28;20037;-75
2023/10/24 00:28:11;;;;;;;5.63;2.28;;;10.40;99.90;;;;;;5078934;28;20048;-76
2023/10/24 00:30:37;;;;;;;8.52;2.83;;;10.40;99.90;;;;;;5059748;28;20042;-74
2023/10/24 00:33:04;;;;;;;6.80;3.08;;;10.40;99.90;;;;;;5060651;28;20117;-74
2023/10/24 00:35:29;;;;;;;4.57;2.08;;;10.40;99.90;;;;;;5060940;28;20044;-74
2023/10/24 00:37:55;;;;;;;6.03;2.65;;;10.40;99.90;;;;;;5046246;28;20048;-75
2023/10/24 00:40:21;;;;;;;4.65;2.08;;;10.30;99.90;;;;;;5067252;28;20044;-75
2023/10/24 00:42:46;;;;;;;8.23;2.53;;;10.40;99.90;;;;;;5050237;28;20076;-74
2023/10/24 00:45:12;;;;;;;8.35;2.67;;;10.40;99.90;;;;;;5067605;28;20028;-74
2023/10/24 00:47:38;;;;;;;6.72;2.30;;;10.40;99.90;;;;;;5049638;28;20466;-74
2023/10/24 00:50:05;;;;;;;5.32;1.95;;;10.40;99.90;;;;;;5064281;28;20112;-74
2023/10/24 00:52:32;;;;;;;6.93;2.42;;;10.40;99.90;;;;;;5062307;28;20036;-75
2023/10/24 00:54:58;;;;;;;4.50;2.00;;;10.40;99.90;;;;;;5062372;28;20118;-74
2023/10/24 00:57:24;;;;;;;5.68;2.78;;;10.40;99.90;;;;;;5079229;28;20119;-74
2023/10/24 00:59:52;;;;;;;8.98;2.90;;;10.40;99.90;;;;;;5061388;28;20037;-74
2023/10/24 01:02:17;;;;;;;4.65;2.20;;;10.40;99.90;;;;;;5058476;28;20056;-74
2023/10/24 01:04:44;;;;;;;7.47;2.25;;;10.40;99.90;;;;;;5042954;28;20087;-74
2023/10/24 01:07:09;;;;;;;7.38;3.10;;;10.40;99.90;;;;;;5043371;28;20056;-74
2023/10/24 01:09:35;;;;;;;7.18;2.75;;;10.40;99.90;;;;;;5045065;28;20029;-74
2023/10/24 01:12:01;;;;;;;4.82;2.30;;;10.40;99.90;;;;;;5061928;28;20090;-74
2023/10/24 01:14:27;;;;;;;6.75;2.35;;;10.40;99.90;;;;;;5060551;28;20044;-75
2023/10/24 01:16:52;;;;;;;5.25;2.45;;;10.40;99.90;;;;;;5045185;28;20041;-75
2023/10/24 01:19:18;;;;;;;5.80;2.20;;;10.40;99.90;;;;;;5041107;28;20257;-75
2023/10/24 01:21:46;;;;;;;5.93;2.42;;;10.40;99.90;;;;;;5060904;28;20049;-74
2023/10/24 01:24:17;;;;;;;7.03;2.40;;;10.40;99.90;;;;;;5060694;28;20082;-75
2023/10/24 01:26:43;;;;;;;5.72;2.22;;;10.50;99.90;;;;;;5059696;28;20479;-74
2023/10/24 01:29:10;;;;;;;4.65;2.33;;;10.40;99.90;;;;;;5044363;28;20505;-75
2023/10/24 01:31:36;;;;;;;6.65;2.50;;;10.40;99.90;;;;;;5043922;28;20085;-74
2023/10/24 01:34:01;;;;;;;6.72;3.05;;;10.40;99.90;;;;;;5063119;28;20075;-74
2023/10/24 01:36:27;;;;;;;4.88;2.30;;;10.50;99.90;;;;;;5061039;28;20048;-74
2023/10/24 01:38:53;;;;;;;5.50;3.10;;;10.50;99.90;;;;;;5062567;28;20036;-74
2023/10/24 01:41:19;;;;;;;7.18;1.63;;;10.50;99.90;;;;;;5066419;28;20065;-74
2023/10/24 01:43:44;;;;;;;5.47;2.38;;;10.50;99.90;;;;;;5049269;28;20048;-74
2023/10/24 01:46:10;;;;;;;3.35;1.80;;;10.50;99.90;;;;;;5065638;28;20040;-74
2023/10/24 01:48:36;;;;;;;5.40;2.20;;;10.50;99.90;;;;;;5048729;28;20036;-74
2023/10/24 01:51:02;;;;;;;5.45;2.10;;;10.50;99.90;;;;;;5062665;28;20474;-74
2023/10/24 01:53:28;;;;;;;5.80;2.30;;;10.50;99.90;;;;;;5047096;28;20051;-74
2023/10/24 01:55:54;;;;;;;3.70;2.30;;;10.60;99.90;;;;;;5045213;28;20074;-74
2023/10/24 01:58:19;;;;;;;5.53;1.92;;;10.50;99.90;;;;;;5060659;28;20075;-74
2023/10/24 02:00:45;;;;;;;5.32;2.03;;;10.60;99.90;;;;;;5044628;28;20036;-74
2023/10/24 02:03:10;;;;;;;3.35;1.58;;;10.50;99.90;;;;;;5059623;28;20094;-74
2023/10/24 02:05:36;;;;;;;4.07;1.83;;;10.60;99.90;;;;;;5039958;28;20094;-74
2023/10/24 02:08:02;;;;;;;6.10;2.03;;;10.60;99.90;;;;;;5043040;28;20067;-74
2023/10/24 02:10:28;;;;;;;5.10;1.67;;;10.60;99.90;;;;;;5059785;28;20044;-74
2023/10/24 02:12:53;;;;;;;3.58;1.40;;;10.60;99.90;;;;;;5059367;28;20036;-74
2023/10/24 02:15:19;;;;;;;3.95;1.48;;;10.60;99.90;;;;;;5061293;28;20409;-74
2023/10/24 02:17:45;;;;;;;6.72;2.08;;;10.60;99.90;;;;;;5043253;28;20033;-74
2023/10/24 02:20:10;;;;;;;3.97;2.10;;;10.60;99.90;;;;;;5055795;28;20516;-74
2023/10/24 02:22:36;;;;;;;3.30;1.85;;;10.60;99.90;;;;;;5059951;28;20126;-74
2023/10/24 02:25:02;;;;;;;5.47;2.17;;;10.60;99.90;;;;;;5044530;28;20032;-74
2023/10/24 02:27:28;;;;;;;5.28;2.05;;;10.60;99.90;;;;;;5060531;28;20059;-74
2023/10/24 02:29:53;;;;;;;4.63;1.73;;;10.70;99.90;;;;;;5057889;28;20064;-74
2023/10/24 02:32:19;;;;;;;3.88;1.77;;;10.70;99.90;;;;;;5061412;28;20401;-74
2023/10/24 02:34:51;;;;;;;5.13;1.90;;;10.70;99.90;;;;;;5056581;28;20102;-74
2023/10/24 02:37:17;;;;;;;3.33;1.58;;;10.70;99.90;;;;;;5061324;28;20040;-74
2023/10/24 02:39:42;;;;;;;5.07;1.67;;;10.70;99.90;;;;;;5040939;28;20444;-75
2023/10/24 02:42:08;;;;;;;5.18;2.17;;;10.70;99.90;;;;;;5058581;28;20367;-75
2023/10/24 02:44:34;;;;;;;6.43;1.70;;;10.70;99.90;;;;;;5075449;28;20099;-74
2023/10/24 02:46:59;;;;;;;4.03;1.98;;;10.70;99.90;;;;;;5059801;28;20480;-74
2023/10/24 02:49:25;;;;;;;4.72;1.80;;;10.70;99.90;;;;;;5041234;28;20029;-74
2023/10/24 02:51:51;;;;;;;4.53;2.10;;;10.80;99.90;;;;;;5057713;28;20528;-75
2023/10/24 02:54:16;;;;;;;6.45;1.90;;;10.80;99.90;;;;;;5058102;28;20072;-75
2023/10/24 02:56:42;;;;;;;7.25;2.22;;;10.80;99.90;;;;;;5057262;28;20077;-75
2023/10/24 02:59:08;;;;;;;3.50;1.75;;;10.80;99.90;;;;;;5059985;28;20032;-74
2023/10/24 03:01:33;;;;;;;5.53;2.33;;;10.80;99.90;;;;;;5043283;28;20064;-75
2023/10/24 03:03:59;;;;;;;5.53;1.77;;;10.80;99.90;;;;;;5043748;28;20045;-74
2023/10/24 03:06:24;;;;;;;3.63;1.80;;;10.80;99.90;;;;;;5092616;28;20067;-74
2023/10/24 03:08:50;;;;;;;6.15;2.20;;;10.80;99.90;;;;;;5043150;28;20036;-75
2023/10/24 03:11:23;;;;;;;4.18;2.00;;;10.80;99.90;;;;;;5054307;28;20469;-75
2023/10/24 03:13:51;;;;;;;6.32;2.65;;;10.80;99.90;;;;;;5053581;28;20036;-75
2023/10/24 03:16:17;;;;;;;3.47;1.63;;;10.80;99.90;;;;;;5055367;28;20120;-75
2023/10/24 03:18:43;;;;;;;6.18;2.53;;;10.80;99.90;;;;;;5059620;28;20193;-75
2023/10/24 03:21:09;;;;;;;5.22;1.52;;;10.80;99.90;;;;;;5043656;28;20052;-75
2023/10/24 03:23:35;;;;;;;4.57;2.08;;;10.80;99.90;;;;;;5072999;28;20469;-75
2023/10/24 03:26:04;;;;;;;5.95;3.05;;;10.80;99.90;;;;;;5042432;28;20778;-75
2023/10/24 03:28:30;;;;;;;3.78;1.98;;;10.80;99.90;;;;;;5061115;28;20039;-75
2023/10/24 03:31:06;;;;;;;4.82;2.85;;;10.90;99.90;;;;;;5059654;28;20036;-75
2023/10/24 03:33:33;;;;;;;5.03;1.98;;;10.80;99.90;;;;;;5063797;28;20143;-74
2023/10/24 03:36:00;;;;;;;6.00;2.05;;;10.90;99.90;;;;;;5064237;28;20292;-74
2023/10/24 03:38:27;;;;;;;5.93;1.95;;;10.80;99.90;;;;;;5083986;28;20040;-74
2023/10/24 03:40:53;;;;;;;6.53;2.78;;;10.90;99.90;;;;;;5069368;28;20125;-74
2023/10/24 03:43:20;;;;;;;5.97;3.08;;;10.90;99.90;;;;;;5071329;28;20044;-74
2023/10/24 03:45:46;;;;;;;3.60;2.03;;;10.90;99.90;;;;;;5070315;28;20068;-74
2023/10/24 03:48:12;;;;;;;4.47;2.35;;;10.90;99.90;;;;;;5070687;28;20064;-74
2023/10/24 03:50:39;;;;;;;4.97;2.03;;;10.80;99.90;;;;;;5053867;28;20078;-74
2023/10/24 03:53:05;;;;;;;4.25;2.08;;;10.90;99.90;;;;;;5045368;28;20036;-75
2023/10/24 03:55:31;;;;;;;5.93;2.45;;;10.90;99.90;;;;;;5058187;28;20507;-75
2023/10/24 03:57:57;;;;;;;5.43;2.35;;;10.90;99.90;;;;;;5060971;28;20128;-75
2023/10/24 04:00:23;;;;;;;6.80;2.33;;;10.90;99.90;;;;;;5065682;28;20135;-75
2023/10/24 04:02:53;;;;;;;6.38;3.28;;;10.90;99.90;;;;;;5047886;28;20036;-75
2023/10/24 04:05:18;;;;;;;5.18;2.10;;;10.90;99.90;;;;;;5045690;28;20037;-74
2023/10/24 04:07:44;;;;;;;5.45;2.65;;;10.90;99.90;;;;;;5063537;28;20055;-75
2023/10/24 04:10:12;;;;;;;5.43;2.15;;;10.90;99.90;;;;;;5049284;28;20063;-75
2023/10/24 04:12:38;;;;;;;5.25;2.22;;;10.90;99.90;;;;;;5061987;28;21496;-75
2023/10/24 04:15:05;;;;;;;7.63;2.60;;;11.00;99.90;;;;;;5048620;28;20241;-75
2023/10/24 04:17:32;;;;;;;5.35;2.20;;;11.00;99.90;;;;;;5063734;28;20055;-75
2023/10/24 04:20:12;;;;;;;5.50;2.40;;;11.00;99.90;;;;;;5007934;28;20679;-75
2023/10/24 04:22:38;;;;;;;5.78;2.70;;;11.00;99.90;;;;;;5063167;28;20147;-75
2023/10/24 04:25:04;;;;;;;4.53;2.47;;;11.00;99.90;;;;;;5046290;28;20935;-75
2023/10/24 04:27:30;;;;;;;5.68;2.20;;;11.00;99.90;;;;;;5054489;28;20079;-74
2023/10/24 04:29:56;;;;;;;4.43;2.25;;;11.00;99.90;;;;;;5079100;28;20033;-75
2023/10/24 04:32:22;;;;;;;5.50;2.33;;;11.10;99.90;;;;;;5064255;28;20040;-74
2023/10/24 04:34:51;;;;;;;5.68;2.65;;;11.00;99.90;;;;;;5064032;28;20090;-74
2023/10/24 04:37:18;;;;;;;4.57;2.22;;;11.10;99.90;;;;;;5061797;28;20048;-74
2023/10/24 04:39:44;;;;;;;4.15;2.15;;;11.00;99.90;;;;;;5077137;28;20325;-74
2023/10/24 04:42:09;;;;;;;5.43;2.70;;;11.10;99.90;;;;;;5046732;28;20059;-75
2023/10/24 04:44:35;;;;;;;4.32;2.50;;;11.10;99.90;;;;;;5056759;28;20044;-74
2023/10/24 04:47:01;;;;;;;5.13;2.67;;;11.10;99.90;;;;;;5060390;28;20127;-74
2023/10/24 04:49:26;;;;;;;5.65;3.00;;;11.10;99.90;;;;;;5044392;28;20040;-74
2023/10/24 04:51:52;;;;;;;5.57;2.88;;;11.10;99.90;;;;;;5060490;28;20033;-74
2023/10/24 04:54:18;;;;;;;5.80;2.70;;;11.10;99.90;;;;;;5044925;28;20036;-75
2023/10/24 04:56:43;;;;;;;6.10;2.53;;;11.10;99.90;;;;;;5044173;28;20402;-75
2023/10/24 04:59:09;;;;;;;4.18;2.10;;;11.10;99.90;;;;;;5056511;28;20494;-75
2023/10/24 05:01:37;;;;;;;4.45;2.33;;;11.10;99.90;;;;;;5059109;28;20573;-75
2023/10/24 05:04:06;;;;;;;5.15;2.78;;;11.10;99.90;;;;;;5061236;28;20040;-74
2023/10/24 05:06:32;;;;;;;5.00;2.33;;;11.10;99.90;;;;;;5061115;28;20186;-75
2023/10/24 05:08:57;;;;;;;4.18;2.00;;;11.10;99.90;;;;;;5059700;28;20131;-75
2023/10/24 05:11:23;;;;;;;7.10;2.58;;;11.10;99.90;;;;;;5059107;28;20500;-74
2023/10/24 05:13:49;;;;;;;4.40;2.45;;;11.10;99.90;;;;;;5043508;28;20125;-74
2023/10/24 05:16:15;;;;;;;3.13;1.58;;;11.10;99.90;;;;;;5061680;28;20751;-74
2023/10/24 05:18:40;;;;;;;4.65;1.98;;;11.20;99.90;;;;;;5092440;28;20513;-74
2023/10/24 05:21:06;;;;;;;4.35;1.92;;;11.10;99.90;;;;;;5060099;28;20081;-74
2023/10/24 05:23:31;;;;;;;5.63;2.22;;;11.10;99.90;;;;;;5060069;28;20040;-74
2023/10/24 05:25:57;;;;;;;4.10;1.83;;;11.10;99.90;;;;;;5043213;28;20037;-74
2023/10/24 05:28:23;;;;;;;4.18;1.90;;;11.10;99.90;;;;;;5058939;28;20127;-74
2023/10/24 05:30:49;;;;;;;4.70;2.35;;;11.10;99.90;;;;;;5042156;28;20199;-74
2023/10/24 05:33:14;;;;;;;4.13;1.90;;;11.10;99.90;;;;;;5043406;28;20535;-74
2023/10/24 05:35:47;;;;;;;4.25;1.83;;;11.10;99.90;;;;;;5049419;28;20123;-74
2023/10/24 05:38:13;;;;;;;5.72;2.03;;;11.10;99.90;;;;;;5057948;28;20083;-74
2023/10/24 05:40:39;;;;;;;2.92;1.83;;;11.00;99.90;;;;;;5057853;28;20040;-75
2023/10/24 05:43:06;;;;;;;5.40;1.92;;;11.10;99.90;;;;;;5043474;28;20090;-74
2023/10/24 05:45:32;;;;;;;4.28;1.95;;;11.10;99.90;;;;;;5056065;28;20044;-74
2023/10/24 05:47:57;;;;;;;3.85;1.77;;;11.10;99.90;;;;;;5071379;28;20044;-74
2023/10/24 05:50:24;;;;;;;6.25;1.83;;;11.10;99.90;;;;;;5040623;28;20025;-75
2023/10/24 05:52:50;;;;;;;2.80;1.50;;;11.00;99.90;;;;;;5054021;28;20044;-76
2023/10/24 05:55:16;;;;;;;3.33;1.27;;;11.10;99.90;;;;;;5054186;28;20136;-75
2023/10/24 05:57:42;;;;;;;4.32;2.33;;;11.10;99.90;;;;;;5054430;28;20406;-75
2023/10/24 06:00:08;;;;;;;5.00;2.05;;;11.10;99.90;;;;;;5037871;28;20043;-74
2023/10/24 06:02:34;;;;;;;4.88;2.10;;;11.10;99.90;;;;;;5053596;28;20040;-74
2023/10/24 06:04:59;;;;;;;3.35;1.38;;;11.10;99.90;;;;;;5042080;28;20225;-74
2023/10/24 06:07:25;;;;;;;3.65;2.30;;;11.10;99.90;;;;;;5055510;28;20037;-75
2023/10/24 06:09:51;;;;;;;4.13;1.33;;;11.10;99.90;;;;;;5054235;28;20116;-75
2023/10/24 06:12:16;;;;;;;4.45;1.90;;;11.10;99.90;;;;;;5056107;28;20044;-75
2023/10/24 06:14:42;;;;;;;3.75;1.50;;;11.10;99.90;;;;;;5039377;28;20040;-75
2023/10/24 06:17:07;;;;;;;2.95;1.38;;;11.10;99.90;;;;;;5058505;28;20452;-75
2023/10/24 06:19:39;;;;;;;3.72;1.40;;;11.10;99.90;;;;;;5052954;28;20044;-75
2023/10/24 06:22:05;;;;;;;3.20;1.70;;;11.10;99.90;;;;;;5061277;28;20044;-75
2023/10/24 06:24:31;;;;;;;2.33;1.30;;;11.10;99.90;;;;;;5040891;28;20126;-79
2023/10/24 06:26:56;;;;;;;6.85;1.77;;;11.10;99.90;;;;;;5051565;28;20423;-76
2023/10/24 06:29:22;;;;;;;3.35;1.90;;;11.10;99.90;;;;;;5076853;28;20390;-75
2023/10/24 06:31:47;;;;;;;4.10;1.48;;;11.10;99.90;;;;;;5046038;28;20178;-75
2023/10/24 06:34:13;;;;;;;4.20;1.17;;;11.10;99.90;;;;;;5060800;28;20222;-74
2023/10/24 06:36:38;;;;;;;3.25;1.40;;;11.10;99.90;;;;;;5063512;28;20072;-75
2023/10/24 06:39:04;;;;;;;3.33;1.38;;;11.10;99.90;;;;;;5061883;28;20037;-75
2023/10/24 06:41:30;;;;;;;2.65;1.48;;;11.10;99.90;;;;;;5047273;28;20051;-77
2023/10/24 06:43:56;;;;;;;7.93;1.85;;;11.10;99.90;;;;;;5041254;28;20097;-74
2023/10/24 06:46:23;;;;;;;4.35;1.58;;;11.10;99.90;;;;;;5090270;28;20059;-74
2023/10/24 06:48:50;;;;;;;4.82;1.83;;;11.10;99.90;;;;;;5057792;28;20039;-74
2023/10/24 06:51:16;;;;;;;3.65;1.70;;;11.10;99.90;;;;;;5057053;28;20117;-74
2023/10/24 06:53:42;;;;;;;3.15;1.58;;;11.10;99.90;;;;;;5058198;28;20521;-74
2023/10/24 06:56:07;;;;;;;3.22;1.25;;;11.10;99.90;;;;;;5060436;28;20475;-74
2023/10/24 06:58:33;;;;;;;3.33;1.50;;;11.10;99.90;;;;;;5062486;28;20033;-74
2023/10/24 07:00:58;;;;;;;2.17;1.10;;;11.10;99.90;;;;;;5061221;28;20044;-74
2023/10/24 07:03:24;;;;;;;2.75;1.30;;;11.10;99.90;;;;;;5045110;28;20038;-74
2023/10/24 07:05:51;;;;;;;3.80;1.10;;;11.10;99.90;;;;;;5059866;28;20498;-74
2023/10/24 07:08:17;;;;;;;2.35;1.33;;;11.10;99.90;;;;;;5060721;28;20028;-75
2023/10/24 07:10:43;;;;;;;3.28;1.75;;;11.10;99.90;;;;;;5061571;28;20035;-76
2023/10/24 07:13:10;;;;;;;3.38;1.58;;;11.10;99.90;;;;;;5061193;28;20504;-74
2023/10/24 07:15:36;;;;;;;3.30;1.30;;;11.10;99.90;;;;;;5089048;28;20129;-74
2023/10/24 07:18:01;;;;;;;4.97;1.58;;;11.10;99.90;;;;;;5060132;28;20497;-74
2023/10/24 07:20:27;;;;;;;4.13;1.58;;;11.20;99.90;;;;;;5060804;28;20036;-74
2023/10/24 07:22:52;;;;;;;2.25;1.20;;;11.20;99.90;;;;;;5039295;28;20036;-74
2023/10/24 07:25:18;;;;;;;3.63;1.45;;;11.20;99.90;;;;;;5039704;28;20049;-74
2023/10/24 07:27:44;;;;;;;3.30;1.65;;;11.20;99.90;;;;;;5059949;28;20339;-74
2023/10/24 07:30:10;;;;;;;4.05;1.83;;;11.10;99.90;;;;;;5060983;28;20112;-74
2023/10/24 07:32:35;;;;;;;3.35;1.17;;;11.20;99.90;;;;;;5044152;28;21001;-74
2023/10/24 07:35:01;;;;;;;3.63;1.55;;;11.20;99.90;;;;;;5060347;28;20055;-74
2023/10/24 07:37:28;;;;;;;3.72;1.50;;;11.20;99.90;;;;;;5059148;28;20082;-74
2023/10/24 07:39:54;;;;;;;3.97;1.83;;;11.20;99.90;;;;;;5060102;28;20051;-74
2023/10/24 07:42:20;;;;;;;4.05;1.38;;;11.30;99.90;;;;;;5059558;28;20056;-73
2023/10/24 07:44:46;;;;;;;3.65;1.42;;;11.20;99.90;;;;;;5062631;28;20051;-74
2023/10/24 07:47:11;;;;;;;3.28;1.23;;;11.20;99.90;;;;;;5061501;28;20037;-73
2023/10/24 07:49:37;;;;;;;4.35;1.67;;;11.20;99.90;;;;;;5045388;28;20033;-73
2023/10/24 07:52:03;;;;;;;4.63;1.80;;;11.30;99.90;;;;;;5061399;28;20501;-74
2023/10/24 07:54:30;;;;;;;3.20;1.30;;;11.20;99.90;;;;;;5060272;28;20037;-73
2023/10/24 07:56:55;;;;;;;2.75;1.40;;;11.30;99.90;;;;;;5044744;28;20055;-74
2023/10/24 07:59:21;;;;;;;3.08;1.30;;;11.20;99.90;;;;;;5057295;28;20037;-73
2023/10/24 08:01:47;;;;;;;3.80;1.40;;;11.30;99.90;;;;;;5059534;28;20041;-74
2023/10/24 08:04:12;;;;;;;2.85;1.48;;;11.30;99.90;;;;;;5045194;28;20044;-73
2023/10/24 08:06:38;;;;;;;4.18;1.60;;;11.20;99.90;;;;;;5042171;28;20033;-74
2023/10/24 08:09:03;;;;;;;4.13;1.70;;;11.30;99.90;;;;;;5059547;28;20032;-73
2023/10/24 08:11:29;;;;;;;2.55;1.20;;;11.30;99.90;;;;;;5060849;28;20029;-80
2023/10/24 08:13:55;;;;;;;3.72;1.50;;;11.20;99.90;;;;;;5060878;28;20033;-74
2023/10/24 08:16:20;;;;;;;3.42;1.85;;;11.30;99.90;;;;;;5059916;28;20045;-74
2023/10/24 08:18:46;;;;;;;4.72;2.17;;;11.20;99.90;;;;;;5063573;28;20072;-74
2023/10/24 08:21:12;;;;;;;4.00;1.80;;;11.30;99.90;;;;;;5049705;28;20063;-74
2023/10/24 08:23:38;;;;;;;4.07;1.70;;;11.30;99.90;;;;;;5060234;28;20044;-74
2023/10/24 08:26:04;;;;;;;2.95;1.40;;;11.20;99.90;;;;;;5060141;28;20047;-73
2023/10/24 08:28:31;;;;;;;3.83;1.35;;;11.30;99.90;;;;;;5056860;28;20105;-74
2023/10/24 08:30:57;;;;;;;3.15;1.45;;;11.30;99.90;;;;;;5041414;28;20391;-74
2023/10/24 08:33:23;;;;;;;5.05;1.40;;;11.30;99.90;;;;;;5046407;28;20119;-74
2023/10/24 08:35:48;;;;;;;3.65;1.42;;;11.30;99.90;;;;;;5063890;28;20274;-74
2023/10/24 08:38:15;;;;;;;4.57;1.20;;;11.30;99.90;;;;;;5041823;28;20047;-74
2023/10/24 08:40:40;;;;;;;3.42;1.33;;;11.30;99.90;;;;;;5046305;28;20445;-74
2023/10/24 08:43:08;;;;;;;10.57;2.15;;;11.30;99.90;;;;;;5061664;28;20055;-78
2023/10/24 08:45:35;;;;;;;4.65;1.55;;;11.40;99.90;;;;;;5048093;28;20044;-74
2023/10/24 08:48:05;;;;;;;5.65;1.80;;;11.30;99.90;;;;;;5059372;28;20208;-74
2023/10/24 08:50:31;;;;;;;3.10;1.38;;;11.30;99.90;;;;;;5048106;28;20147;-74
2023/10/24 08:52:57;;;;;;;3.75;1.40;;;11.40;99.90;;;;;;5043521;28;20040;-74
2023/10/24 08:55:24;;;;;;;4.43;1.90;;;11.40;99.90;;;;;;5046369;28;20102;-74
2023/10/24 08:57:50;;;;;;;4.68;1.67;;;11.40;99.90;;;;;;5061636;28;20064;-74
2023/10/24 09:00:16;;;;;;;5.00;2.25;;;11.50;99.90;;;;;;5058940;28;20036;-74
2023/10/24 09:02:45;;;;;;;4.22;1.70;;;11.40;99.90;;;;;;5058488;28;20059;-77
2023/10/24 09:05:12;;;;;;;5.13;1.42;;;11.40;99.90;;;;;;5095003;28;20490;-74
2023/10/24 09:07:38;;;;;;;4.65;1.65;;;11.40;99.90;;;;;;5060639;28;20051;-74
2023/10/24 09:10:04;;;;;;;4.43;1.98;;;11.40;99.90;;;;;;5057668;28;20742;-74
2023/10/24 09:12:31;;;;;;;4.43;1.73;;;11.40;99.90;;;;;;5072479;28;20122;-74
2023/10/24 09:14:58;;;;;;;3.88;1.88;;;11.50;99.90;;;;;;5060381;28;20032;-74
2023/10/24 09:17:24;;;;;;;5.28;2.00;;;11.40;99.90;;;;;;5058911;28;20490;-74
2023/10/24 09:19:50;;;;;;;7.22;3.03;;;11.50;99.90;;;;;;5044518;28;20124;-74
2023/10/24 09:22:17;;;;;;;3.70;1.98;;;11.40;99.90;;;;;;5052569;28;20097;-74
2023/10/24 09:24:48;;;;;;;5.90;2.15;;;11.40;99.90;;;;;;5039706;28;20040;-76
2023/10/24 09:27:15;;;;;;;3.58;1.55;;;11.40;99.90;;;;;;5052111;28;20523;-77
2023/10/24 09:29:41;;;;;;;3.95;1.50;;;11.40;99.90;;;;;;5037649;28;20059;-77
2023/10/24 09:32:06;;;;;;;4.97;2.10;;;11.50;99.90;;;;;;5051971;28;20040;-76
2023/10/24 09:34:33;;;;;;;4.72;1.73;;;11.40;99.90;;;;;;5041174;28;20075;-76
2023/10/24 09:37:10;;;;;;;4.47;1.98;;;11.40;99.90;;;;;;5053212;28;20429;-76
2023/10/24 09:39:57;;;;;;;4.22;1.48;;;11.40;99.90;;;;;;5038501;28;20074;-76
2023/10/24 09:42:26;;;;;;;4.53;1.75;;;11.40;99.90;;;;;;5085392;28;20071;-76
2023/10/24 09:45:00;;;;;;;4.15;1.73;;;11.40;99.90;;;;;;5053458;28;20131;-76
2023/10/24 09:47:26;;;;;;;2.97;1.88;;;11.50;99.90;;;;;;5034252;28;20190;-76
2023/10/24 09:49:53;;;;;;;4.65;1.50;;;11.50;99.90;;;;;;5037143;28;20040;-76
2023/10/24 09:52:21;;;;;;;2.33;1.30;;;11.50;99.90;;;;;;5065244;28;20170;-76
2023/10/24 09:54:50;;;;;;;3.95;1.45;;;11.50;99.90;;;;;;5069220;28;20033;-76
2023/10/24 09:57:23;;;;;;;4.38;1.48;;;11.50;99.90;;;;;;5057311;28;20119;-75
2023/10/24 09:59:57;;;;;;;3.08;1.15;;;11.40;99.90;;;;;;5059028;28;20048;-76
2023/10/24 10:02:24;;;;;;;9.43;2.03;;;11.50;99.90;;;;;;5057864;28;20414;-76
2023/10/24 10:04:53;;;;;;;4.13;1.85;;;11.40;99.90;;;;;;5054714;28;20076;-77
2023/10/24 10:07:20;;;;;;;3.42;1.48;;;11.40;99.90;;;;;;5047831;28;20028;-76
2023/10/24 10:09:49;;;;;;;7.55;2.55;;;11.50;99.90;;;;;;5052146;28;20500;-76
2023/10/24 10:12:18;;;;;;;4.38;2.00;;;11.50;99.90;;;;;;5047751;28;20515;-77
2023/10/24 10:15:04;;;;;;;4.68;1.50;;;11.40;99.90;;;;;;5058633;28;20137;-76
2023/10/24 10:18:12;;;;;;;3.70;1.83;;;11.50;99.90;;;;;;5055071;28;20047;-76
2023/10/24 10:20:54;;;;;;;4.15;1.65;;;11.50;99.90;;;;;;5038166;28;20109;-76
2023/10/24 10:23:42;;;;;;;2.92;1.30;;;11.50;99.90;;;;;;5073350;28;20517;-76
2023/10/24 10:26:30;;;;;;;3.50;1.45;;;11.50;99.90;;;;;;5084266;28;20036;-76
2023/10/24 10:29:25;;;;;;;4.38;2.28;;;11.50;99.90;;;;;;5060914;28;20035;-76
2023/10/24 10:32:07;;;;;;;3.90;1.83;;;11.60;99.90;;;;;;5042140;28;20044;-76
2023/10/24 10:34:34;;;;;;;6.55;3.53;;;11.60;99.90;;;;;;5072675;28;20051;-76
2023/10/24 10:37:00;;;;;;;4.90;2.10;;;11.50;99.90;;;;;;5089817;28;20580;-76
2023/10/24 10:39:26;;;;;;;5.03;2.10;;;11.60;99.90;;;;;;5042493;28;20115;-76
2023/10/24 10:41:52;;;;;;;3.75;1.35;;;11.60;99.90;;;;;;5041123;28;20037;-76
2023/10/24 10:44:45;;;;;;;2.85;1.50;;;11.60;99.90;;;;;;5043693;28;20257;-75
2023/10/24 10:47:14;;;;;;;4.25;1.35;;;11.60;99.90;;;;;;5040959;28;20075;-76
2023/10/24 10:49:49;;;;;;;5.35;2.10;;;11.70;99.90;;;;;;5059089;28;20084;-76
2023/10/24 10:52:30;;;;;;;3.00;1.40;;;11.70;99.90;;;;;;5069788;28;20482;-76
2023/10/24 10:55:23;;;;;;;3.10;1.30;;;11.70;99.90;;;;;;5041525;28;20037;-76
2023/10/24 10:58:05;;;;;;;5.15;1.50;;;11.70;99.90;;;;;;5087594;28;20560;-77
2023/10/24 11:01:09;;;;;;;5.43;2.22;;;11.80;99.90;;;;;;5041884;28;20040;-75
2023/10/24 11:03:38;;;;;;;4.60;1.27;;;11.80;99.90;;;;;;5075236;28;20052;-75
2023/10/24 11:06:12;;;;;;;4.70;1.65;;;11.90;99.90;;;;;;5085625;28;20499;-77
2023/10/24 11:08:38;;;;;;;5.65;1.65;;;11.90;99.90;;;;;;5038687;28;20036;-76
2023/10/24 11:11:07;;;;;;;4.28;1.65;;;11.90;99.90;;;;;;5056712;28;20035;-77
2023/10/24 11:13:43;;;;;;;3.25;1.77;;;12.00;99.90;;;;;;5031168;28;20482;-76
2023/10/24 11:16:11;;;;;;;3.83;1.80;;;12.00;99.90;;;;;;5037229;28;20070;-79
2023/10/24 11:18:38;;;;;;;5.10;1.60;;;12.00;99.90;;;;;;5039774;28;20036;-76
2023/10/24 11:21:07;;;;;;;2.80;1.33;;;12.00;99.90;;;;;;5049314;28;20040;-77
2023/10/24 11:23:33;;;;;;;4.63;1.80;;;12.00;99.90;;;;;;5073239;28;20556;-77
2023/10/24 11:26:05;;;;;;;4.72;1.70;;;12.00;99.90;;;;;;5035131;28;20041;-76
2023/10/24 11:28:32;;;;;;;4.65;1.58;;;12.00;99.90;;;;;;5072428;28;20132;-76
2023/10/24 11:30:58;;;;;;;4.65;2.30;;;12.00;99.90;;;;;;5039304;28;21043;-77
2023/10/24 11:33:25;;;;;;;4.63;1.52;;;12.10;99.90;;;;;;5060821;28;20037;-77
2023/10/24 11:35:52;;;;;;;4.47;1.45;;;12.10;99.90;;;;;;5051606;28;20040;-76
2023/10/24 11:38:18;;;;;;;3.70;1.60;;;12.10;99.90;;;;;;5039439;28;20115;-77
2023/10/24 11:40:47;;;;;;;4.90;2.00;;;12.10;99.90;;;;;;5054133;28;20554;-77
2023/10/24 11:43:14;;;;;;;4.60;2.10;;;12.10;99.90;;;;;;5049893;28;20047;-77
2023/10/24 11:45:40;;;;;;;3.65;1.80;;;12.10;99.90;;;;;;5047662;28;20036;-77
2023/10/24 11:48:06;;;;;;;3.88;1.40;;;12.10;99.90;;;;;;5053329;28;20032;-77
2023/10/24 11:50:45;;;;;;;3.70;1.60;;;12.10;99.90;;;;;;5033733;28;20444;-80
2023/10/24 11:53:19;;;;;;;4.43;2.35;;;12.10;99.90;;;;;;5056932;28;20115;-78
2023/10/24 11:55:44;;;;;;;4.40;2.15;;;12.10;99.90;;;;;;5043151;28;20032;-77
2023/10/24 11:58:11;;;;;;;4.20;1.80;;;12.10;99.90;;;;;;5041532;28;20093;-77
2023/10/24 12:00:40;;;;;;;6.32;1.50;;;12.10;99.90;;;;;;5091122;28;20490;-77
2023/10/24 12:03:06;;;;;;;6.90;1.92;;;12.20;99.90;;;;;;5042408;28;20093;-78
2023/10/24 12:05:32;;;;;;;4.22;1.60;;;12.20;99.90;;;;;;5061560;28;20028;-78
2023/10/24 12:07:59;;;;;;;4.75;1.70;;;12.30;99.90;;;;;;5054523;28;20081;-78
2023/10/24 12:10:29;;;;;;;3.78;1.90;;;12.40;99.90;;;;;;5057599;28;20438;-78
2023/10/24 12:13:01;;;;;;;5.38;1.95;;;12.50;99.90;;;;;;5046227;28;20044;-78
2023/10/24 12:15:27;;;;;;;5.72;2.10;;;12.50;99.90;;;;;;5059016;28;20662;-77
2023/10/24 12:17:53;;;;;;;4.78;2.15;;;12.60;99.90;;;;;;5040971;28;20044;-77
2023/10/24 12:20:22;;;;;;;4.05;2.05;;;12.60;99.90;;;;;;5078359;28;20036;-78
2023/10/24 12:22:48;;;;;;;3.85;1.73;;;12.70;99.90;;;;;;5043931;28;20064;-78
2023/10/24 12:25:17;;;;;;;5.18;1.98;;;12.70;99.90;;;;;;5042323;28;20036;-77
2023/10/24 12:27:45;;;;;;;5.75;1.60;;;12.70;99.90;;;;;;5040236;28;20120;-77
2023/10/24 12:30:12;;;;;;;4.28;1.80;;;12.70;99.90;;;;;;5070156;28;20343;-78
2023/10/24 12:32:37;;;;;;;4.20;1.67;;;12.70;99.90;;;;;;5052081;28;20933;-78
2023/10/24 12:35:06;;;;;;;4.60;1.75;;;12.60;99.90;;;;;;5091681;28;20081;-78
2023/10/24 12:37:33;;;;;;;3.67;1.63;;;12.60;99.90;;;;;;5052592;28;20045;-78
2023/10/24 12:39:58;;;;;;;5.20;1.80;;;12.50;99.90;;;;;;5034830;28;20044;-77
2023/10/24 12:42:24;;;;;;;3.80;1.83;;;12.50;99.90;;;;;;5042878;28;20032;-78
2023/10/24 12:44:50;;;;;;;4.97;1.92;;;12.60;99.90;;;;;;5056968;28;20406;-78
2023/10/24 12:47:15;;;;;;;5.10;2.10;;;12.40;99.90;;;;;;5036592;28;20440;-77
2023/10/24 12:49:41;;;;;;;4.70;2.58;;;12.50;99.90;;;;;;5057294;28;20044;-78